createdAt,value
2022-10-22T00:08:37.576Z,61.60
2022-10-22T00:18:40.111Z,60.90
2022-10-22T00:28:41.865Z,61.00
2022-10-22T00:38:43.725Z,60.80
2022-10-22T00:48:45.686Z,60.90
2022-10-22T00:58:52.331Z,60.90
2022-10-22T01:09:09.858Z,60.80
2022-10-22T01:19:39.349Z,60.70
2022-10-22T01:29:51.825Z,60.80
2022-10-22T01:39:54.301Z,60.70
2022-10-22T01:50:10.917Z,60.60
2022-10-22T02:00:17.161Z,61.20
2022-10-22T02:10:19.697Z,60.20
2022-10-22T02:20:34.936Z,60.20
2022-10-22T02:30:38.685Z,60.20
2022-10-22T02:40:40.556Z,60.30
2022-10-22T02:50:42.426Z,60.20
2022-10-22T03:00:44.373Z,60.20
2022-10-22T03:10:46.134Z,60.20
2022-10-22T03:20:48.185Z,60.30
2022-10-22T03:30:49.971Z,59.90
2022-10-22T03:40:51.939Z,60.00
2022-10-22T03:50:53.739Z,60.20
2022-10-22T04:00:55.543Z,60.00
2022-10-22T04:10:57.342Z,60.50
2022-10-22T04:20:59.111Z,60.40
2022-10-22T04:31:00.942Z,61.30
2022-10-22T04:41:10.975Z,60.50
2022-10-22T04:51:18.199Z,60.70
2022-10-22T05:01:21.225Z,60.60
2022-10-22T05:11:25.711Z,60.60
2022-10-22T05:21:28.468Z,60.60
2022-10-22T05:31:30.313Z,60.50
2022-10-22T05:41:34.457Z,60.40
2022-10-22T05:51:37.446Z,60.40
2022-10-22T06:01:40.050Z,60.60
2022-10-22T06:11:41.927Z,60.20
2022-10-22T06:21:44.054Z,60.00
2022-10-22T06:31:45.814Z,60.10
2022-10-22T06:41:47.663Z,60.00
2022-10-22T06:51:53.155Z,59.80
2022-10-22T07:01:54.923Z,59.80
2022-10-22T07:11:57.062Z,60.00
2022-10-22T07:21:59.125Z,59.70
2022-10-22T07:32:00.865Z,60.00
2022-10-22T07:42:02.654Z,59.80
2022-10-22T07:52:04.580Z,59.90
2022-10-22T08:02:06.380Z,59.80
2022-10-22T08:12:08.449Z,59.90
2022-10-22T08:22:10.219Z,60.10
2022-10-22T08:32:12.157Z,59.90
2022-10-22T08:42:35.510Z,60.10
2022-10-22T08:52:40.481Z,60.00
2022-10-22T09:03:09.908Z,60.00
2022-10-22T09:13:18.974Z,60.30
2022-10-22T09:23:28.067Z,60.30
2022-10-22T09:33:31.756Z,60.40
2022-10-22T09:43:36.038Z,60.70
2022-10-22T09:53:44.007Z,60.80
2022-10-22T10:03:47.555Z,61.10
2022-10-22T10:14:09.963Z,60.90
2022-10-22T10:24:39.403Z,60.90
2022-10-22T10:34:48.197Z,60.80
2022-10-22T10:45:01.617Z,61.00
2022-10-22T10:55:28.633Z,61.10
2022-10-22T11:05:41.940Z,61.10
2022-10-22T11:15:50.406Z,61.20
2022-10-22T11:25:52.223Z,61.10
2022-10-22T11:35:55.531Z,61.10
2022-10-22T11:46:09.267Z,61.10
2022-10-22T11:56:12.932Z,61.00
2022-10-22T12:06:19.720Z,61.10
2022-10-22T12:16:32.276Z,61.30
2022-10-22T12:26:46.972Z,61.20
2022-10-22T12:36:50.744Z,61.30
2022-10-22T12:46:56.014Z,61.20
2022-10-22T12:57:00.334Z,60.90
2022-10-22T13:07:18.254Z,60.90
2022-10-22T13:17:49.928Z,59.80
2022-10-22T13:28:12.970Z,59.90
2022-10-22T13:38:20.926Z,59.80
2022-10-22T13:48:25.363Z,59.80
2022-10-22T13:58:27.260Z,59.80
2022-10-22T14:08:29.159Z,59.80
2022-10-22T14:18:33.036Z,59.80
2022-10-22T14:28:41.214Z,59.80
2022-10-22T14:38:53.689Z,60.30
2022-10-22T14:48:55.536Z,60.60
2022-10-22T14:58:57.364Z,61.00
2022-10-22T15:08:59.201Z,61.30
2022-10-22T15:19:01.151Z,61.30
2022-10-22T15:29:04.717Z,61.50
2022-10-22T15:39:08.755Z,61.70
2022-10-22T15:49:10.746Z,61.90
2022-10-22T15:59:14.039Z,61.90
2022-10-22T16:09:18.458Z,61.80
2022-10-22T16:19:22.600Z,61.30
2022-10-22T16:29:24.482Z,61.10
2022-10-22T16:39:26.310Z,60.90
2022-10-22T16:49:28.103Z,60.80
2022-10-22T16:59:29.862Z,60.20
2022-10-22T17:09:31.684Z,60.00
2022-10-22T17:19:34.249Z,59.80
2022-10-22T17:29:37.129Z,59.80
2022-10-22T17:39:39.014Z,59.80
2022-10-22T17:49:41.261Z,59.80
2022-10-22T17:59:43.222Z,59.80
2022-10-22T18:09:45.341Z,59.80
2022-10-22T18:19:49.102Z,59.80
2022-10-22T18:29:51.443Z,59.90
2022-10-22T18:39:53.418Z,60.40
2022-10-22T18:49:55.234Z,59.80
2022-10-22T18:59:59.443Z,59.80
2022-10-22T19:10:01.493Z,60.00
2022-10-22T19:20:03.706Z,60.00
2022-10-22T19:30:06.173Z,60.10
2022-10-22T19:40:09.513Z,60.00
2022-10-22T19:50:11.379Z,60.10
2022-10-22T20:00:13.516Z,60.20
2022-10-22T20:10:16.607Z,59.80
2022-10-22T20:20:20.934Z,59.80
2022-10-22T20:30:23.686Z,59.80
2022-10-22T20:40:26.686Z,59.80
2022-10-22T20:50:31.324Z,59.80
2022-10-22T21:00:35.918Z,59.90
2022-10-22T21:10:37.701Z,59.80
2022-10-22T21:20:39.977Z,59.90
2022-10-22T21:30:45.687Z,59.90
2022-10-22T21:40:48.078Z,59.80
2022-10-22T21:50:49.926Z,59.80
2022-10-22T22:00:56.553Z,59.80
2022-10-22T22:11:09.318Z,59.80
2022-10-22T22:21:14.532Z,59.80
2022-10-22T22:31:19.320Z,59.90
2022-10-22T22:41:21.103Z,59.80
2022-10-22T22:51:23.250Z,59.80
2022-10-22T23:01:33.301Z,59.80
2022-10-22T23:11:35.420Z,59.80
2022-10-22T23:21:39.520Z,60.00
2022-10-22T23:31:42.216Z,60.10
2022-10-22T23:41:44.190Z,60.20
2022-10-22T23:51:46.380Z,60.20
